Terminal Aerodrome Forecast
Issued by NWS

Home | Current Version | Previous Version | Text Only | Print | Product List | Glossary On
Versions: 1 2 3 4 5 6 7 8 9 10 11 12 13 14 15 16 17 18 19 20 21 22 23
000
FTUS44 KHGX 181505 AAA
TAFLBX
TAF AMD
KLBX 181505Z 1815/1912 17012KT P6SM VCSH SCT009 BKN012 OVC020
      TEMPO 1818/1822 3SM TSRA BR OVC006CB
     FM182200 17008KT P6SM VCSH BKN010 OVC020
     FM190400 VRB03KT 4SM BR OVC007
     FM190900 29007KT 4SM BR VCTS BKN007 OVC015CB=

USA.gov is the U.S. government's official web portal to all federal, state and local government web resources and services.